sensor_id;sensor_type;location;lat;lon;timestamp;P1;durP1;ratioP1;P2;durP2;ratioP2
2438;SDS011;14509;47.992;7.848;2023-03-30T03:18:16;5.73;;;2.40;;
2438;SDS011;14509;47.992;7.848;2023-03-30T03:20:18;7.97;;;2.50;;
2438;SDS011;14509;47.992;7.848;2023-03-30T03:22:20;8.70;;;3.20;;
2438;SDS011;14509;47.992;7.848;2023-03-30T03:24:22;9.73;;;3.90;;
2438;SDS011;14509;47.992;7.848;2023-03-30T03:26:53;9.50;;;2.50;;
2438;SDS011;14509;47.992;7.848;2023-03-30T03:28:57;6.37;;;2.90;;
2438;SDS011;14509;47.992;7.848;2023-03-30T03:30:59;7.50;;;2.93;;
2438;SDS011;14509;47.992;7.848;2023-03-30T03:33:01;10.13;;;3.50;;
2438;SDS011;14509;47.992;7.848;2023-03-30T03:35:07;7.60;;;3.63;;
2438;SDS011;14509;47.992;7.848;2023-03-30T03:37:10;9.43;;;3.00;;
2438;SDS011;14509;47.992;7.848;2023-03-30T03:39:13;7.50;;;2.77;;
2438;SDS011;14509;47.992;7.848;2023-03-30T03:41:15;6.00;;;2.80;;
2438;SDS011;14509;47.992;7.848;2023-03-30T03:43:17;11.43;;;3.30;;
2438;SDS011;14509;47.992;7.848;2023-03-30T03:45:19;11.07;;;3.10;;
2438;SDS011;14509;47.992;7.848;2023-03-30T03:47:28;7.90;;;3.03;;
2438;SDS011;14509;47.992;7.848;2023-03-30T03:49:31;6.50;;;2.33;;
2438;SDS011;14509;47.992;7.848;2023-03-30T03:51:34;9.00;;;3.43;;
2438;SDS011;14509;47.992;7.848;2023-03-30T03:53:36;8.93;;;2.50;;
2438;SDS011;14509;47.992;7.848;2023-03-30T03:55:42;12.10;;;2.90;;
2438;SDS011;14509;47.992;7.848;2023-03-30T03:57:45;12.67;;;2.87;;
2438;SDS011;14509;47.992;7.848;2023-03-30T03:59:47;8.73;;;2.90;;
2438;SDS011;14509;47.992;7.848;2023-03-30T04:01:49;5.50;;;3.17;;
2438;SDS011;14509;47.992;7.848;2023-03-30T04:03:51;8.77;;;2.97;;
2438;SDS011;14509;47.992;7.848;2023-03-30T04:05:53;7.10;;;2.50;;
2438;SDS011;14509;47.992;7.848;2023-03-30T04:07:56;12.30;;;3.07;;
2438;SDS011;14509;47.992;7.848;2023-03-30T04:09:58;12.43;;;2.97;;
2438;SDS011;14509;47.992;7.848;2023-03-30T04:12:16;10.50;;;2.37;;
2438;SDS011;14509;47.992;7.848;2023-03-30T04:14:40;8.67;;;3.10;;
2438;SDS011;14509;47.992;7.848;2023-03-30T04:17:08;9.83;;;2.60;;
2438;SDS011;14509;47.992;7.848;2023-03-30T04:19:32;16.13;;;2.60;;
2438;SDS011;14509;47.992;7.848;2023-03-30T04:21:56;5.57;;;2.70;;
2438;SDS011;14509;47.992;7.848;2023-03-30T04:24:22;5.87;;;2.20;;
2438;SDS011;14509;47.992;7.848;2023-03-30T04:26:25;4.30;;;2.27;;
2438;SDS011;14509;47.992;7.848;2023-03-30T04:28:34;12.33;;;2.90;;
2438;SDS011;14509;47.992;7.848;2023-03-30T04:30:57;10.37;;;2.80;;
2438;SDS011;14509;47.992;7.848;2023-03-30T04:33:11;16.27;;;3.50;;
2438;SDS011;14509;47.992;7.848;2023-03-30T04:35:25;11.73;;;2.67;;
2438;SDS011;14509;47.992;7.848;2023-03-30T04:38:01;7.87;;;2.93;;
2438;SDS011;14509;47.992;7.848;2023-03-30T04:40:20;6.60;;;2.60;;
2438;SDS011;14509;47.992;7.848;2023-03-30T04:42:42;8.33;;;2.80;;
2438;SDS011;14509;47.992;7.848;2023-03-30T04:44:51;6.50;;;2.80;;
2438;SDS011;14509;47.992;7.848;2023-03-30T04:47:15;8.47;;;3.07;;
2438;SDS011;14509;47.992;7.848;2023-03-30T04:49:46;6.17;;;3.53;;
2438;SDS011;14509;47.992;7.848;2023-03-30T04:52:14;14.37;;;2.90;;
2438;SDS011;14509;47.992;7.848;2023-03-30T04:54:32;13.80;;;3.13;;
2438;SDS011;14509;47.992;7.848;2023-03-30T04:56:55;8.80;;;3.27;;
2438;SDS011;14509;47.992;7.848;2023-03-30T04:59:18;14.00;;;2.30;;
2438;SDS011;14509;47.992;7.848;2023-03-30T05:01:38;12.57;;;3.27;;
2438;SDS011;14509;47.992;7.848;2023-03-30T05:04:04;4.70;;;2.50;;
2438;SDS011;14509;47.992;7.848;2023-03-30T05:06:27;10.60;;;3.73;;
2438;SDS011;14509;47.992;7.848;2023-03-30T05:08:57;5.30;;;2.63;;
2438;SDS011;14509;47.992;7.848;2023-03-30T05:11:17;6.87;;;2.60;;
2438;SDS011;14509;47.992;7.848;2023-03-30T05:13:26;8.73;;;1.93;;
2438;SDS011;14509;47.992;7.848;2023-03-30T05:15:51;7.97;;;2.60;;
2438;SDS011;14509;47.992;7.848;2023-03-30T05:18:14;11.00;;;2.80;;
2438;SDS011;14509;47.992;7.848;2023-03-30T05:20:31;10.90;;;3.00;;
2438;SDS011;14509;47.992;7.848;2023-03-30T05:22:55;10.07;;;2.80;;
2438;SDS011;14509;47.992;7.848;2023-03-30T05:25:16;6.37;;;2.83;;
2438;SDS011;14509;47.992;7.848;2023-03-30T05:27:34;6.53;;;3.10;;
2438;SDS011;14509;47.992;7.848;2023-03-30T05:29:58;11.30;;;3.80;;
2438;SDS011;14509;47.992;7.848;2023-03-30T05:32:13;9.33;;;3.03;;
2438;SDS011;14509;47.992;7.848;2023-03-30T05:34:36;13.60;;;4.30;;
2438;SDS011;14509;47.992;7.848;2023-03-30T05:36:51;14.93;;;3.27;;
2438;SDS011;14509;47.992;7.848;2023-03-30T05:39:13;8.23;;;3.13;;
2438;SDS011;14509;47.992;7.848;2023-03-30T05:41:33;18.70;;;3.80;;
2438;SDS011;14509;47.992;7.848;2023-03-30T05:43:45;12.27;;;3.37;;
2438;SDS011;14509;47.992;7.848;2023-03-30T05:46:18;6.73;;;3.10;;
2438;SDS011;14509;47.992;7.848;2023-03-30T05:48:35;7.63;;;3.50;;
2438;SDS011;14509;47.992;7.848;2023-03-30T05:50:51;6.87;;;2.80;;
2438;SDS011;14509;47.992;7.848;2023-03-30T05:53:03;9.77;;;3.20;;
2438;SDS011;14509;47.992;7.848;2023-03-30T05:55:16;7.23;;;3.10;;
2438;SDS011;14509;47.992;7.848;2023-03-30T05:57:42;10.30;;;2.50;;
2438;SDS011;14509;47.992;7.848;2023-03-30T06:00:02;10.83;;;2.60;;
2438;SDS011;14509;47.992;7.848;2023-03-30T06:02:27;5.97;;;2.13;;
2438;SDS011;14509;47.992;7.848;2023-03-30T06:04:36;10.43;;;2.23;;
2438;SDS011;14509;47.992;7.848;2023-03-30T06:06:38;10.23;;;2.93;;
2438;SDS011;14509;47.992;7.848;2023-03-30T06:08:40;10.53;;;3.23;;
2438;SDS011;14509;47.992;7.848;2023-03-30T06:10:50;8.93;;;3.20;;
2438;SDS011;14509;47.992;7.848;2023-03-30T06:12:53;16.20;;;2.83;;
2438;SDS011;14509;47.992;7.848;2023-03-30T06:15:18;7.60;;;3.00;;
2438;SDS011;14509;47.992;7.848;2023-03-30T06:17:25;15.37;;;2.87;;
2438;SDS011;14509;47.992;7.848;2023-03-30T06:19:29;3.80;;;1.90;;
2438;SDS011;14509;47.992;7.848;2023-03-30T06:21:31;8.10;;;2.30;;
2438;SDS011;14509;47.992;7.848;2023-03-30T06:23:52;7.30;;;2.10;;
2438;SDS011;14509;47.992;7.848;2023-03-30T06:25:57;8.93;;;2.90;;
2438;SDS011;14509;47.992;7.848;2023-03-30T06:28:04;7.37;;;3.03;;
2438;SDS011;14509;47.992;7.848;2023-03-30T06:30:08;9.13;;;3.07;;
2438;SDS011;14509;47.992;7.848;2023-03-30T06:32:13;11.20;;;3.70;;
2438;SDS011;14509;47.992;7.848;2023-03-30T06:34:35;10.10;;;3.50;;
2438;SDS011;14509;47.992;7.848;2023-03-30T06:36:37;6.80;;;2.83;;
2438;SDS011;14509;47.992;7.848;2023-03-30T06:38:39;8.93;;;3.00;;
2438;SDS011;14509;47.992;7.848;2023-03-30T06:40:43;13.47;;;3.50;;
2438;SDS011;14509;47.992;7.848;2023-03-30T06:42:47;6.07;;;3.27;;
2438;SDS011;14509;47.992;7.848;2023-03-30T06:45:08;11.40;;;2.83;;
2438;SDS011;14509;47.992;7.848;2023-03-30T06:47:11;5.90;;;3.07;;
2438;SDS011;14509;47.992;7.848;2023-03-30T06:49:13;9.70;;;5.10;;
2438;SDS011;14509;47.992;7.848;2023-03-30T06:51:19;7.33;;;2.97;;
2438;SDS011;14509;47.992;7.848;2023-03-30T06:53:22;10.07;;;3.13;;
2438;SDS011;14509;47.992;7.848;2023-03-30T06:55:25;12.10;;;3.00;;
2438;SDS011;14509;47.992;7.848;2023-03-30T06:57:27;7.17;;;2.80;;
2438;SDS011;14509;47.992;7.848;2023-03-30T06:59:29;10.33;;;2.73;;
2438;SDS011;14509;47.992;7.848;2023-03-30T07:01:50;9.63;;;2.43;;
2438;SDS011;14509;47.992;7.848;2023-03-30T07:04:12;6.07;;;2.53;;
2438;SDS011;14509;47.992;7.848;2023-03-30T07:06:36;7.77;;;2.77;;
2438;SDS011;14509;47.992;7.848;2023-03-30T07:08:40;9.67;;;3.03;;
2438;SDS011;14509;47.992;7.848;2023-03-30T07:10:47;7.60;;;2.60;;
2438;SDS011;14509;47.992;7.848;2023-03-30T07:12:51;6.60;;;2.60;;
2438;SDS011;14509;47.992;7.848;2023-03-30T07:14:55;9.50;;;3.50;;
2438;SDS011;14509;47.992;7.848;2023-03-30T07:16:57;11.33;;;3.13;;
2438;SDS011;14509;47.992;7.848;2023-03-30T07:18:59;9.50;;;2.83;;
2438;SDS011;14509;47.992;7.848;2023-03-30T07:21:01;9.53;;;4.00;;
2438;SDS011;14509;47.992;7.848;2023-03-30T07:23:13;8.13;;;3.40;;
2438;SDS011;14509;47.992;7.848;2023-03-30T07:25:17;8.90;;;3.60;;
2438;SDS011;14509;47.992;7.848;2023-03-30T07:27:19;13.27;;;4.80;;
2438;SDS011;14509;47.992;7.848;2023-03-30T07:29:24;7.90;;;2.73;;
2438;SDS011;14509;47.992;7.848;2023-03-30T07:31:28;12.10;;;3.00;;
2438;SDS011;14509;47.992;7.848;2023-03-30T07:33:31;13.50;;;3.80;;
2438;SDS011;14509;47.992;7.848;2023-03-30T07:35:38;7.67;;;3.10;;
2438;SDS011;14509;47.992;7.848;2023-03-30T07:37:44;19.67;;;4.00;;
2438;SDS011;14509;47.992;7.848;2023-03-30T07:39:48;6.93;;;3.90;;
2438;SDS011;14509;47.992;7.848;2023-03-30T07:41:50;5.10;;;3.20;;
2438;SDS011;14509;47.992;7.848;2023-03-30T07:43:56;6.27;;;2.73;;
2438;SDS011;14509;47.992;7.848;2023-03-30T07:45:58;10.20;;;2.73;;
2438;SDS011;14509;47.992;7.848;2023-03-30T07:48:08;5.90;;;2.43;;
2438;SDS011;14509;47.992;7.848;2023-03-30T07:50:10;8.23;;;3.37;;
2438;SDS011;14509;47.992;7.848;2023-03-30T07:52:12;6.40;;;2.40;;
2438;SDS011;14509;47.992;7.848;2023-03-30T07:54:22;9.30;;;3.97;;
2438;SDS011;14509;47.992;7.848;2023-03-30T07:56:46;6.83;;;2.47;;
2438;SDS011;14509;47.992;7.848;2023-03-30T07:58:52;8.33;;;2.67;;
2438;SDS011;14509;47.992;7.848;2023-03-30T08:00:58;3.33;;;2.90;;
2438;SDS011;14509;47.992;7.848;2023-03-30T08:03:21;7.90;;;2.60;;
2438;SDS011;14509;47.992;7.848;2023-03-30T08:05:24;11.00;;;3.30;;
2438;SDS011;14509;47.992;7.848;2023-03-30T08:07:39;13.13;;;2.77;;
2438;SDS011;14509;47.992;7.848;2023-03-30T08:09:47;6.40;;;4.00;;
2438;SDS011;14509;47.992;7.848;2023-03-30T08:11:50;9.10;;;2.70;;
2438;SDS011;14509;47.992;7.848;2023-03-30T08:13:52;12.03;;;3.70;;
2438;SDS011;14509;47.992;7.848;2023-03-30T08:15:54;4.00;;;3.33;;
2438;SDS011;14509;47.992;7.848;2023-03-30T08:17:56;11.97;;;4.30;;
2438;SDS011;14509;47.992;7.848;2023-03-30T08:20:03;5.57;;;4.00;;
2438;SDS011;14509;47.992;7.848;2023-03-30T08:22:10;7.03;;;4.50;;
2438;SDS011;14509;47.992;7.848;2023-03-30T08:24:12;8.23;;;4.40;;
2438;SDS011;14509;47.992;7.848;2023-03-30T08:26:14;8.77;;;4.80;;
2438;SDS011;14509;47.992;7.848;2023-03-30T08:28:18;7.90;;;5.23;;
2438;SDS011;14509;47.992;7.848;2023-03-30T08:30:21;10.80;;;4.77;;
2438;SDS011;14509;47.992;7.848;2023-03-30T08:32:23;7.23;;;3.90;;
2438;SDS011;14509;47.992;7.848;2023-03-30T08:34:26;7.53;;;4.63;;
2438;SDS011;14509;47.992;7.848;2023-03-30T08:36:28;9.30;;;4.43;;
2438;SDS011;14509;47.992;7.848;2023-03-30T08:38:30;9.47;;;5.10;;
2438;SDS011;14509;47.992;7.848;2023-03-30T08:40:32;18.57;;;5.80;;
2438;SDS011;14509;47.992;7.848;2023-03-30T08:45:06;6.30;;;5.13;;
2438;SDS011;14509;47.992;7.848;2023-03-30T08:47:11;12.23;;;5.17;;
2438;SDS011;14509;47.992;7.848;2023-03-30T08:49:15;9.43;;;6.00;;
2438;SDS011;14509;47.992;7.848;2023-03-30T08:51:21;9.60;;;5.80;;
2438;SDS011;14509;47.992;7.848;2023-03-30T08:53:25;10.33;;;5.90;;
2438;SDS011;14509;47.992;7.848;2023-03-30T08:55:29;13.97;;;6.90;;
2438;SDS011;14509;47.992;7.848;2023-03-30T08:57:37;7.73;;;5.10;;
2438;SDS011;14509;47.992;7.848;2023-03-30T08:59:47;8.00;;;5.93;;
2438;SDS011;14509;47.992;7.848;2023-03-30T09:02:00;8.37;;;5.63;;
2438;SDS011;14509;47.992;7.848;2023-03-30T09:04:10;10.10;;;6.23;;
2438;SDS011;14509;47.992;7.848;2023-03-30T09:06:22;6.13;;;5.03;;
2438;SDS011;14509;47.992;7.848;2023-03-30T09:08:30;9.17;;;4.90;;
2438;SDS011;14509;47.992;7.848;2023-03-30T09:10:35;7.60;;;4.77;;
2438;SDS011;14509;47.992;7.848;2023-03-30T09:12:42;8.93;;;5.30;;
2438;SDS011;14509;47.992;7.848;2023-03-30T09:14:48;9.57;;;5.77;;
2438;SDS011;14509;47.992;7.848;2023-03-30T16:28:26;6.43;;;2.90;;
2438;SDS011;14509;47.992;7.848;2023-03-30T16:31:00;6.53;;;2.80;;
2438;SDS011;14509;47.992;7.848;2023-03-30T16:36:16;10.23;;;1.77;;
2438;SDS011;14509;47.992;7.848;2023-03-30T16:39:03;1.73;;;1.40;;
2438;SDS011;14509;47.992;7.848;2023-03-30T16:41:16;2.00;;;1.30;;
2438;SDS011;14509;47.992;7.848;2023-03-30T16:46:10;4.60;;;1.67;;
2438;SDS011;14509;47.992;7.848;2023-03-30T16:48:58;6.43;;;3.10;;
2438;SDS011;14509;47.992;7.848;2023-03-30T16:51:25;3.40;;;1.57;;
2438;SDS011;14509;47.992;7.848;2023-03-30T16:54:06;2.50;;;1.47;;
2438;SDS011;14509;47.992;7.848;2023-03-30T16:56:58;5.13;;;2.23;;
2438;SDS011;14509;47.992;7.848;2023-03-30T17:05:18;2.70;;;2.23;;
